createdAt,value
2018-08-22T00:00:17.412Z,45.60
2018-08-22T00:02:44.971Z,45.40
2018-08-22T00:05:12.702Z,45.50
2018-08-22T00:07:40.380Z,45.50
2018-08-22T00:10:08.347Z,45.60
2018-08-22T00:12:35.982Z,45.50
2018-08-22T00:15:03.766Z,45.60
2018-08-22T00:17:32.404Z,45.70
2018-08-22T00:19:59.915Z,46.00
2018-08-22T00:22:27.510Z,45.90
2018-08-22T00:24:55.123Z,45.70
2018-08-22T00:27:22.639Z,46.00
2018-08-22T00:29:50.250Z,46.20
2018-08-22T00:32:17.803Z,46.20
2018-08-22T00:34:45.363Z,46.50
2018-08-22T00:37:12.966Z,47.60
2018-08-22T00:39:40.500Z,46.90
2018-08-22T00:42:08.134Z,46.90
2018-08-22T00:44:35.760Z,46.80
2018-08-22T00:47:03.279Z,46.90
2018-08-22T00:49:30.935Z,47.00
2018-08-22T00:51:58.627Z,46.70
2018-08-22T00:54:26.309Z,47.30
2018-08-22T00:56:53.900Z,47.30
2018-08-22T00:59:21.378Z,46.90
2018-08-22T01:01:48.887Z,47.40
2018-08-22T01:04:16.527Z,47.00
2018-08-22T01:06:44.167Z,47.50
2018-08-22T01:09:11.787Z,47.60
2018-08-22T01:11:39.414Z,47.80
2018-08-22T01:14:06.940Z,47.90
2018-08-22T01:16:35.397Z,47.60
2018-08-22T01:19:03.238Z,48.00
2018-08-22T01:21:31.381Z,48.00
2018-08-22T01:23:59.041Z,48.80
2018-08-22T01:26:26.642Z,48.20
2018-08-22T01:28:54.180Z,48.20
2018-08-22T01:31:21.829Z,48.50
2018-08-22T01:33:49.405Z,48.50
2018-08-22T01:36:17.056Z,48.40
2018-08-22T01:38:44.624Z,48.60
2018-08-22T01:41:12.182Z,48.60
2018-08-22T01:43:40.107Z,48.70
2018-08-22T01:46:07.705Z,48.80
2018-08-22T01:48:35.430Z,49.10
2018-08-22T01:51:03.028Z,49.10
2018-08-22T01:53:30.579Z,49.20
2018-08-22T01:55:58.230Z,49.30
2018-08-22T01:58:25.855Z,49.30
2018-08-22T02:00:53.401Z,49.50
2018-08-22T02:03:20.973Z,49.30
2018-08-22T02:05:48.518Z,49.40
2018-08-22T02:08:16.161Z,49.70
2018-08-22T02:10:43.728Z,50.00
2018-08-22T02:13:11.218Z,50.30
2018-08-22T02:15:43.672Z,50.10
2018-08-22T02:18:11.226Z,50.20
2018-08-22T02:20:38.788Z,50.50
2018-08-22T02:23:06.341Z,50.50
2018-08-22T02:25:33.883Z,50.70
2018-08-22T02:28:02.883Z,50.80
2018-08-22T02:30:30.348Z,51.00
2018-08-22T02:32:57.990Z,51.30
2018-08-22T02:35:25.662Z,52.10
2018-08-22T02:37:53.223Z,52.30
2018-08-22T02:40:22.260Z,52.20
2018-08-22T02:42:49.894Z,52.70
2018-08-22T02:45:17.514Z,53.20
2018-08-22T02:47:45.171Z,53.30
2018-08-22T02:50:12.806Z,53.60
2018-08-22T02:52:40.428Z,54.40
2018-08-22T02:55:08.097Z,54.70
2018-08-22T02:57:35.690Z,55.60
2018-08-22T03:00:04.108Z,56.40
2018-08-22T03:02:31.706Z,56.60
2018-08-22T03:04:59.343Z,57.80
2018-08-22T03:07:27.074Z,57.80
2018-08-22T03:09:54.756Z,57.80
2018-08-22T03:12:22.331Z,59.00
2018-08-22T03:14:49.897Z,59.70
2018-08-22T03:17:17.446Z,60.30
2018-08-22T03:19:45.691Z,60.50
2018-08-22T03:22:13.377Z,60.20
2018-08-22T03:24:40.893Z,60.00
2018-08-22T03:27:08.494Z,59.70
2018-08-22T03:29:36.059Z,60.30
2018-08-22T03:32:03.618Z,60.40
2018-08-22T03:34:31.128Z,61.20
2018-08-22T03:36:58.942Z,61.30
2018-08-22T03:39:26.604Z,61.30
2018-08-22T03:41:54.260Z,61.50
2018-08-22T03:44:21.798Z,62.30
2018-08-22T03:46:49.489Z,62.60
2018-08-22T03:49:17.037Z,63.00
2018-08-22T03:51:44.761Z,62.70
2018-08-22T03:54:12.363Z,62.90
2018-08-22T03:56:39.943Z,63.00
2018-08-22T03:59:07.503Z,63.40
2018-08-22T04:01:35.353Z,64.10
2018-08-22T04:04:03.071Z,64.10
2018-08-22T04:06:30.773Z,64.20
2018-08-22T04:08:58.328Z,64.10
2018-08-22T04:11:25.905Z,64.60
2018-08-22T04:13:53.522Z,64.50
2018-08-22T04:16:21.118Z,65.10
2018-08-22T04:18:49.504Z,64.80
2018-08-22T04:21:17.043Z,65.00
2018-08-22T04:23:44.564Z,66.30
2018-08-22T04:26:12.236Z,66.30
2018-08-22T04:28:39.796Z,66.40
2018-08-22T04:31:07.327Z,65.90
2018-08-22T04:33:34.953Z,66.40
2018-08-22T04:36:02.565Z,66.80
2018-08-22T04:38:30.247Z,67.20
2018-08-22T04:40:57.842Z,66.50
2018-08-22T04:43:25.650Z,66.80
2018-08-22T04:45:54.718Z,67.40
2018-08-22T04:48:22.450Z,66.60
2018-08-22T04:50:50.187Z,66.00
2018-08-22T04:53:17.783Z,66.20
2018-08-22T04:55:45.576Z,66.20
2018-08-22T04:58:13.664Z,67.20
2018-08-22T05:00:41.340Z,66.90
2018-08-22T05:03:08.905Z,67.20
2018-08-22T05:05:36.744Z,67.70
2018-08-22T05:08:04.501Z,67.70
2018-08-22T05:10:32.189Z,67.70
2018-08-22T05:12:59.829Z,67.80
2018-08-22T05:15:27.759Z,67.20
2018-08-22T05:17:56.208Z,67.20
2018-08-22T05:20:23.793Z,67.80
2018-08-22T05:22:51.421Z,67.70
2018-08-22T05:25:19.034Z,68.40
2018-08-22T05:27:46.601Z,67.70
2018-08-22T05:30:14.424Z,68.20
2018-08-22T05:32:41.999Z,67.40
2018-08-22T05:35:09.680Z,67.70
2018-08-22T05:37:37.224Z,68.10
2018-08-22T05:40:05.037Z,67.70
2018-08-22T05:42:32.724Z,68.30
2018-08-22T05:45:00.480Z,67.90
2018-08-22T05:47:28.292Z,68.50
2018-08-22T05:49:56.036Z,68.20
2018-08-22T05:52:23.662Z,68.00
2018-08-22T05:54:51.197Z,68.60
2018-08-22T05:57:18.804Z,68.30
2018-08-22T05:59:46.398Z,68.50
2018-08-22T06:02:13.989Z,68.90
2018-08-22T06:04:41.616Z,69.30
2018-08-22T06:07:09.231Z,68.20
2018-08-22T06:09:36.880Z,67.90
2018-08-22T06:12:04.596Z,68.60
2018-08-22T06:14:32.370Z,68.50
2018-08-22T06:17:00.871Z,67.80
2018-08-22T06:19:28.498Z,68.10
2018-08-22T06:21:56.105Z,66.80
2018-08-22T06:24:23.741Z,63.00
2018-08-22T06:26:51.295Z,59.20
2018-08-22T06:29:19.425Z,54.70
2018-08-22T06:31:47.085Z,52.60
2018-08-22T06:34:14.668Z,49.10
2018-08-22T06:36:42.449Z,47.00
2018-08-22T06:39:11.196Z,45.60
2018-08-22T06:41:39.293Z,44.20
2018-08-22T06:44:07.497Z,43.10
2018-08-22T06:46:35.272Z,42.50
2018-08-22T06:49:04.158Z,42.70
2018-08-22T06:51:32.385Z,42.50
2018-08-22T06:54:00.021Z,43.30
2018-08-22T06:56:27.678Z,45.20
2018-08-22T06:58:56.027Z,44.70
2018-08-22T07:01:23.617Z,45.10
2018-08-22T07:03:51.320Z,47.90
2018-08-22T07:06:18.887Z,49.70
2018-08-22T07:08:46.563Z,51.50
2018-08-22T07:11:14.731Z,53.10
2018-08-22T07:13:42.506Z,54.40
2018-08-22T07:16:10.174Z,54.70
2018-08-22T07:18:39.064Z,55.70
2018-08-22T07:21:07.897Z,55.50
2018-08-22T07:23:35.473Z,55.20
2018-08-22T07:26:03.140Z,54.30
2018-08-22T07:28:30.700Z,55.10
2018-08-22T07:30:58.440Z,54.30
2018-08-22T07:33:26.169Z,53.60
2018-08-22T07:35:54.033Z,53.60
2018-08-22T07:38:21.591Z,53.70
2018-08-22T07:40:49.236Z,53.40
2018-08-22T07:43:17.195Z,52.90
2018-08-22T07:45:44.915Z,52.50
2018-08-22T07:48:12.533Z,54.00
2018-08-22T07:50:41.037Z,52.50
2018-08-22T07:53:09.849Z,52.20
2018-08-22T07:55:39.607Z,51.20
2018-08-22T07:58:08.128Z,49.60
2018-08-22T08:00:35.741Z,49.00
2018-08-22T08:03:03.352Z,49.20
2018-08-22T08:05:31.304Z,47.90
2018-08-22T08:07:59.003Z,49.50
2018-08-22T08:10:31.272Z,48.30
2018-08-22T08:12:59.123Z,47.10
2018-08-22T08:15:26.779Z,47.70
2018-08-22T08:17:54.576Z,47.60
2018-08-22T08:20:22.706Z,46.60
2018-08-22T08:22:50.492Z,46.40
2018-08-22T08:25:18.222Z,46.90
2018-08-22T08:27:46.025Z,44.80
2018-08-22T08:30:13.629Z,45.20
2018-08-22T08:32:41.476Z,45.90
2018-08-22T08:35:09.442Z,46.30
2018-08-22T08:37:37.478Z,45.40
2018-08-22T08:40:05.340Z,45.80
2018-08-22T08:42:33.349Z,44.90
2018-08-22T08:45:01.073Z,45.40
2018-08-22T08:47:29.080Z,43.60
2018-08-22T08:49:56.739Z,44.30
2018-08-22T08:52:24.424Z,43.30
2018-08-22T08:54:53.186Z,42.60
2018-08-22T08:57:20.852Z,42.80
2018-08-22T08:59:49.392Z,43.00
2018-08-22T09:02:16.989Z,41.80
2018-08-22T09:04:44.649Z,41.20
2018-08-22T09:07:13.707Z,40.60
2018-08-22T09:09:41.303Z,40.30
2018-08-22T09:12:09.032Z,39.90
2018-08-22T09:14:37.280Z,40.90
2018-08-22T09:17:05.548Z,40.80
2018-08-22T09:19:33.297Z,41.20
2018-08-22T09:22:00.946Z,40.40
2018-08-22T09:24:28.592Z,40.10
2018-08-22T09:26:56.208Z,39.00
2018-08-22T09:29:24.860Z,39.60
2018-08-22T09:31:52.585Z,40.60
2018-08-22T09:34:20.288Z,39.60
2018-08-22T09:36:47.929Z,39.60
2018-08-22T09:39:16.314Z,38.70
2018-08-22T09:41:44.701Z,37.40
2018-08-22T09:44:12.360Z,38.10
2018-08-22T09:46:40.668Z,37.80
2018-08-22T09:49:08.785Z,36.90
2018-08-22T09:51:36.333Z,37.00
2018-08-22T09:54:04.257Z,36.00
2018-08-22T09:56:32.032Z,36.80
2018-08-22T09:59:04.041Z,35.90
2018-08-22T10:01:37.257Z,36.10
2018-08-22T10:04:05.083Z,35.00
2018-08-22T10:06:49.699Z,35.00
2018-08-22T10:09:22.841Z,36.10
2018-08-22T10:11:50.815Z,35.10
2018-08-22T10:14:19.260Z,34.90
2018-08-22T10:16:47.464Z,34.80
2018-08-22T10:19:15.398Z,34.60
2018-08-22T10:21:43.063Z,34.80
2018-08-22T10:24:10.718Z,35.30
2018-08-22T10:26:38.451Z,34.10
2018-08-22T10:29:06.205Z,33.10
2018-08-22T10:31:33.950Z,32.90
2018-08-22T10:34:01.677Z,33.00
2018-08-22T10:36:29.696Z,33.80
2018-08-22T10:38:57.228Z,31.80
2018-08-22T10:41:24.816Z,31.10
2018-08-22T10:43:52.523Z,30.90
2018-08-22T10:46:20.664Z,31.30
2018-08-22T10:48:48.424Z,32.00
2018-08-22T10:51:16.046Z,31.30
2018-08-22T10:53:43.712Z,31.40
2018-08-22T10:56:12.262Z,31.20
2018-08-22T10:58:39.937Z,31.20
2018-08-22T11:01:07.526Z,31.20
2018-08-22T11:03:35.152Z,31.20
2018-08-22T11:06:02.767Z,31.30
2018-08-22T11:08:30.478Z,30.30
2018-08-22T11:10:59.046Z,30.20
2018-08-22T11:13:26.747Z,29.80
2018-08-22T11:15:54.521Z,29.70
2018-08-22T11:18:22.332Z,28.90
2018-08-22T11:20:50.050Z,29.70
2018-08-22T11:23:29.885Z,30.10
2018-08-22T11:26:09.528Z,30.90
2018-08-22T11:28:48.397Z,29.80
2018-08-22T11:31:27.737Z,29.70
2018-08-22T11:34:07.108Z,30.00
2018-08-22T11:36:34.211Z,29.60
2018-08-22T11:39:02.552Z,29.20
2018-08-22T11:41:30.750Z,28.90
2018-08-22T11:43:58.487Z,28.90
2018-08-22T11:46:26.967Z,29.40
2018-08-22T11:48:54.636Z,28.90
2018-08-22T11:51:22.289Z,28.80
2018-08-22T11:53:50.131Z,28.90
2018-08-22T11:56:17.882Z,28.80
2018-08-22T11:58:45.570Z,28.40
2018-08-22T12:01:13.185Z,28.10
2018-08-22T12:03:41.716Z,27.80
2018-08-22T12:06:09.356Z,27.30
2018-08-22T12:08:36.980Z,28.10
2018-08-22T12:11:04.596Z,28.00
2018-08-22T12:13:32.286Z,28.10
2018-08-22T12:16:00.502Z,28.20
2018-08-22T12:18:29.002Z,28.60
2018-08-22T12:20:56.653Z,28.10
2018-08-22T12:23:24.460Z,28.00
2018-08-22T12:25:52.122Z,27.90
2018-08-22T12:28:19.805Z,28.00
2018-08-22T12:30:47.530Z,28.50
2018-08-22T12:33:15.303Z,28.30
2018-08-22T12:35:43.000Z,28.20
2018-08-22T12:38:10.683Z,27.60
2018-08-22T12:40:38.340Z,27.70
2018-08-22T12:43:06.010Z,27.50
2018-08-22T12:45:33.743Z,27.30
2018-08-22T12:48:01.487Z,27.60
2018-08-22T12:50:29.437Z,27.00
2018-08-22T12:52:57.787Z,27.70
2018-08-22T12:55:25.749Z,27.00
2018-08-22T12:57:53.608Z,27.40
2018-08-22T13:00:22.083Z,26.60
2018-08-22T13:02:49.745Z,26.50
2018-08-22T13:05:17.412Z,26.80
2018-08-22T13:07:45.073Z,27.80
2018-08-22T13:10:12.844Z,27.40
2018-08-22T13:12:40.513Z,27.10
2018-08-22T13:15:09.207Z,26.50
2018-08-22T13:17:36.942Z,27.80
2018-08-22T13:20:05.034Z,27.70
2018-08-22T13:22:33.403Z,28.40
2018-08-22T13:25:01.145Z,28.40
2018-08-22T13:27:28.720Z,26.60
2018-08-22T13:29:57.116Z,25.90
2018-08-22T13:32:24.882Z,25.80
2018-08-22T13:34:52.683Z,25.40
2018-08-22T13:37:20.462Z,25.90
2018-08-22T13:39:48.259Z,25.50
2018-08-22T13:42:16.116Z,25.70
2018-08-22T13:44:43.783Z,26.10
2018-08-22T13:47:11.884Z,26.30
2018-08-22T13:49:40.589Z,25.60
2018-08-22T13:52:08.291Z,25.10
2018-08-22T13:54:37.088Z,25.70
2018-08-22T13:57:04.692Z,25.10
2018-08-22T13:59:32.680Z,25.20
2018-08-22T14:02:00.824Z,24.90
2018-08-22T14:04:28.555Z,23.40
2018-08-22T14:06:56.160Z,22.30
2018-08-22T14:09:24.006Z,20.90
2018-08-22T14:11:51.864Z,21.60
2018-08-22T14:14:19.520Z,21.10
2018-08-22T14:16:47.899Z,20.90
2018-08-22T14:19:15.845Z,20.80
2018-08-22T14:21:49.747Z,22.10
2018-08-22T14:24:17.368Z,22.10
2018-08-22T14:26:45.071Z,22.20
2018-08-22T14:29:12.723Z,21.90
2018-08-22T14:31:41.384Z,20.80
2018-08-22T14:34:09.799Z,20.70
2018-08-22T14:36:37.399Z,21.70
2018-08-22T14:39:08.247Z,22.10
2018-08-22T14:41:36.325Z,21.60
2018-08-22T14:44:04.277Z,22.30
2018-08-22T14:46:31.910Z,22.60
2018-08-22T14:48:59.637Z,23.00
2018-08-22T14:51:28.367Z,23.10
2018-08-22T14:53:56.068Z,23.80
2018-08-22T14:56:23.927Z,24.20
2018-08-22T14:58:51.469Z,23.80
2018-08-22T15:01:19.077Z,23.80
2018-08-22T15:03:46.859Z,24.60
2018-08-22T15:06:14.639Z,24.40
2018-08-22T15:08:42.836Z,24.20
2018-08-22T15:11:10.654Z,23.30
2018-08-22T15:13:38.552Z,23.20
2018-08-22T15:16:06.263Z,23.40
2018-08-22T15:18:33.896Z,23.10
2018-08-22T15:21:01.702Z,23.20
2018-08-22T15:23:29.769Z,23.20
2018-08-22T15:25:57.526Z,22.90
2018-08-22T15:28:25.427Z,22.00
2018-08-22T15:30:53.272Z,21.60
2018-08-22T15:33:21.236Z,20.70
2018-08-22T15:35:48.885Z,20.90
2018-08-22T15:38:16.523Z,20.70
2018-08-22T15:40:44.712Z,21.40
2018-08-22T15:43:13.264Z,21.60
2018-08-22T15:45:41.015Z,20.70
2018-08-22T15:48:08.964Z,20.70
2018-08-22T15:50:36.765Z,20.60
2018-08-22T15:53:04.712Z,21.30
2018-08-22T15:55:32.520Z,21.00
2018-08-22T15:58:06.210Z,21.50
2018-08-22T16:00:36.365Z,21.80
2018-08-22T16:03:05.836Z,22.20
2018-08-22T16:05:34.788Z,21.70
2018-08-22T16:08:02.819Z,22.10
2018-08-22T16:10:31.056Z,22.30
2018-08-22T16:12:59.025Z,21.30
2018-08-22T16:15:28.036Z,21.40
2018-08-22T16:17:56.816Z,21.80
2018-08-22T16:20:25.701Z,21.40
2018-08-22T16:22:53.816Z,21.00
2018-08-22T16:26:01.213Z,22.20
2018-08-22T16:28:39.173Z,21.50
2018-08-22T16:31:08.042Z,22.60
2018-08-22T16:33:35.818Z,22.40
2018-08-22T16:36:03.667Z,22.90
2018-08-22T16:38:31.481Z,23.10
2018-08-22T16:40:59.239Z,23.30
2018-08-22T16:43:44.130Z,23.50
2018-08-22T16:46:15.605Z,24.10
2018-08-22T16:48:47.333Z,23.50
2018-08-22T16:51:16.198Z,23.10
2018-08-22T16:53:58.676Z,23.10
2018-08-22T16:56:26.803Z,23.50
2018-08-22T16:59:01.541Z,23.10
2018-08-22T17:01:34.457Z,23.50
2018-08-22T17:04:02.885Z,24.20
2018-08-22T17:06:30.897Z,23.60
2018-08-22T17:08:59.429Z,23.50
2018-08-22T17:11:27.277Z,23.80
2018-08-22T17:13:55.018Z,24.10
2018-08-22T17:16:23.919Z,24.50
2018-08-22T17:18:52.757Z,25.10
2018-08-22T17:21:20.495Z,25.50
2018-08-22T17:23:49.337Z,25.40
2018-08-22T17:26:20.918Z,26.80
2018-08-22T17:29:04.133Z,25.30
2018-08-22T17:31:33.890Z,25.40
2018-08-22T17:34:02.604Z,25.10
2018-08-22T17:36:35.897Z,25.30
2018-08-22T17:39:05.134Z,25.20
2018-08-22T17:41:33.800Z,25.50
2018-08-22T17:44:13.017Z,26.30
2018-08-22T17:46:45.321Z,26.50
2018-08-22T17:49:13.874Z,26.90
2018-08-22T17:51:56.754Z,28.10
2018-08-22T17:54:25.600Z,28.30
2018-08-22T17:57:04.814Z,28.40
2018-08-22T17:59:32.528Z,30.20
2018-08-22T18:02:00.304Z,30.70
2018-08-22T18:04:32.828Z,32.20
2018-08-22T18:07:00.486Z,32.00
2018-08-22T18:09:28.313Z,33.10
2018-08-22T18:11:56.535Z,33.80
2018-08-22T18:14:24.816Z,35.40
2018-08-22T18:16:57.804Z,35.50
2018-08-22T18:19:25.582Z,35.20
2018-08-22T18:21:53.180Z,36.00
2018-08-22T18:24:20.863Z,35.30
2018-08-22T18:26:48.633Z,35.70
2018-08-22T18:29:16.485Z,36.10
2018-08-22T18:31:44.129Z,36.90
2018-08-22T18:34:11.941Z,38.00
2018-08-22T18:36:39.521Z,37.60
2018-08-22T18:39:08.731Z,38.40
2018-08-22T18:41:36.786Z,38.10
2018-08-22T18:44:04.939Z,38.00
2018-08-22T18:46:32.601Z,39.50
2018-08-22T18:49:01.714Z,39.40
2018-08-22T18:51:29.926Z,39.20
2018-08-22T18:53:57.635Z,39.20
2018-08-22T18:56:25.394Z,38.70
2018-08-22T18:58:53.053Z,39.00
2018-08-22T19:01:20.712Z,39.60
2018-08-22T19:03:48.401Z,40.80
2018-08-22T19:06:16.112Z,40.50
2018-08-22T19:08:43.741Z,40.80
2018-08-22T19:11:11.701Z,40.10
2018-08-22T19:13:40.090Z,40.50
2018-08-22T19:16:09.793Z,41.20
2018-08-22T19:18:37.489Z,40.80
2018-08-22T19:21:06.612Z,41.40
2018-08-22T19:23:34.375Z,41.40
2018-08-22T19:26:03.288Z,41.30
2018-08-22T19:28:33.128Z,41.20
2018-08-22T19:31:01.120Z,41.70
2018-08-22T19:33:28.738Z,42.20
2018-08-22T19:35:56.641Z,42.50
2018-08-22T19:38:25.931Z,42.80
2018-08-22T19:40:53.708Z,43.20
2018-08-22T19:43:21.419Z,43.10
2018-08-22T19:45:49.071Z,43.10
2018-08-22T19:48:17.039Z,43.10
2018-08-22T19:50:44.780Z,43.50
2018-08-22T19:53:12.759Z,44.00
2018-08-22T19:55:40.456Z,43.70
2018-08-22T19:58:08.836Z,43.70
2018-08-22T20:00:36.636Z,44.00
2018-08-22T20:03:04.735Z,44.10
2018-08-22T20:05:50.590Z,44.40
2018-08-22T20:08:20.860Z,44.50
2018-08-22T20:10:48.511Z,44.50
2018-08-22T20:13:16.809Z,44.50
2018-08-22T20:15:45.160Z,44.40
2018-08-22T20:18:12.766Z,44.50
2018-08-22T20:20:40.478Z,44.40
2018-08-22T20:23:08.791Z,44.60
2018-08-22T20:25:36.498Z,44.20
2018-08-22T20:28:04.386Z,44.40
2018-08-22T20:30:32.087Z,45.20
2018-08-22T20:33:05.837Z,45.10
2018-08-22T20:35:35.850Z,45.70
2018-08-22T20:38:08.279Z,47.00
2018-08-22T20:40:35.881Z,45.30
2018-08-22T20:43:03.825Z,45.20
2018-08-22T20:45:33.257Z,44.20
2018-08-22T20:48:07.006Z,43.80
2018-08-22T20:50:35.623Z,43.70
2018-08-22T20:53:06.575Z,43.40
2018-08-22T20:55:34.145Z,43.10
2018-08-22T20:58:02.495Z,44.30
2018-08-22T21:00:31.096Z,44.10
2018-08-22T21:02:59.132Z,44.30
2018-08-22T21:05:27.483Z,44.80
2018-08-22T21:07:55.092Z,45.30
2018-08-22T21:10:22.760Z,45.90
2018-08-22T21:12:50.729Z,46.50
2018-08-22T21:15:18.429Z,46.70
2018-08-22T21:17:46.054Z,47.00
2018-08-22T21:20:19.612Z,47.50
2018-08-22T21:22:47.413Z,48.10
2018-08-22T21:25:15.628Z,47.90
2018-08-22T21:27:43.598Z,47.70
2018-08-22T21:30:12.234Z,47.30
2018-08-22T21:32:40.016Z,48.60
2018-08-22T21:35:14.240Z,48.40
2018-08-22T21:37:41.848Z,48.30
2018-08-22T21:40:09.662Z,48.20
2018-08-22T21:42:37.589Z,48.40
2018-08-22T21:45:05.365Z,49.00
2018-08-22T21:47:32.952Z,49.30
2018-08-22T21:50:00.843Z,49.30
2018-08-22T21:53:05.904Z,49.00
2018-08-22T21:55:36.491Z,49.20
2018-08-22T21:58:05.031Z,49.20
2018-08-22T22:00:32.736Z,49.70
2018-08-22T22:03:00.323Z,50.20
2018-08-22T22:05:39.468Z,51.00
2018-08-22T22:08:07.666Z,51.00
2018-08-22T22:10:35.372Z,50.60
2018-08-22T22:13:03.748Z,50.90
2018-08-22T22:15:36.941Z,52.30
2018-08-22T22:18:05.341Z,52.40
2018-08-22T22:20:33.215Z,52.50
2018-08-22T22:23:00.764Z,52.10
2018-08-22T22:25:28.496Z,52.40
2018-08-22T22:27:56.138Z,52.50
2018-08-22T22:30:23.733Z,52.40
2018-08-22T22:32:51.310Z,52.30
2018-08-22T22:35:25.411Z,52.40
2018-08-22T22:38:08.857Z,52.50
2018-08-22T22:40:36.959Z,52.30
2018-08-22T22:43:09.724Z,52.20
2018-08-22T22:45:37.382Z,52.30
2018-08-22T22:48:05.200Z,52.50
2018-08-22T22:50:33.065Z,53.20
2018-08-22T22:53:00.631Z,53.20
2018-08-22T22:55:28.287Z,53.20
2018-08-22T22:57:55.893Z,54.00
2018-08-22T23:00:23.506Z,54.90
2018-08-22T23:02:56.708Z,55.10
2018-08-22T23:05:28.947Z,54.90
2018-08-22T23:07:57.312Z,55.60
2018-08-22T23:10:24.858Z,55.50
2018-08-22T23:12:53.328Z,55.60
2018-08-22T23:15:25.610Z,55.90
2018-08-22T23:17:54.885Z,56.50
2018-08-22T23:20:38.925Z,55.80
2018-08-22T23:23:23.698Z,55.80
2018-08-22T23:25:51.252Z,55.90
2018-08-22T23:28:19.051Z,56.20
2018-08-22T23:30:46.753Z,56.70
2018-08-22T23:33:14.486Z,57.10
2018-08-22T23:35:42.332Z,57.00
2018-08-22T23:38:43.243Z,56.80
2018-08-22T23:41:11.113Z,56.80
2018-08-22T23:43:44.320Z,57.30
2018-08-22T23:46:13.016Z,57.10
2018-08-22T23:48:40.825Z,58.30
2018-08-22T23:51:12.494Z,57.10
2018-08-22T23:53:44.061Z,57.00
2018-08-22T23:56:15.763Z,57.00
2018-08-22T23:58:44.833Z,57.90
